Time;durP1;ratioP1;P1;durP2;ratioP2;P2;SDS_P1;SDS_P2;PMS_P1;PMS_P2;Temp;Humidity;BMP_temperature;BMP_pressure;BME280_temperature;BME280_humidity;BME280_pressure;Samples;Min_cycle;Max_cycle;Signal;HPM_P1;HPM_P2
2022/05/18 00:01:59;;;;;;;5.43;4.90;;;13.10;99.90;;;;;;4969151;28;20168;-89
2022/05/18 00:04:26;;;;;;;6.63;5.28;;;13.00;99.90;;;;;;4976485;28;20019;-88
2022/05/18 00:06:51;;;;;;;8.40;6.03;;;12.90;99.90;;;;;;4976468;28;20030;-88
2022/05/18 00:09:17;;;;;;;5.45;4.57;;;12.90;99.90;;;;;;4957187;28;20019;-88
2022/05/18 00:11:43;;;;;;;6.53;5.93;;;12.80;99.90;;;;;;4958340;28;20425;-89
2022/05/18 00:14:12;;;;;;;8.32;5.70;;;12.60;99.90;;;;;;4964783;28;20031;-87
2022/05/18 00:16:38;;;;;;;7.50;6.57;;;12.50;99.90;;;;;;4975651;28;20027;-88
2022/05/18 00:19:04;;;;;;;6.65;5.75;;;12.50;99.90;;;;;;4969626;28;20038;-87
2022/05/18 00:21:31;;;;;;;9.25;6.18;;;12.40;99.90;;;;;;4939092;28;20518;-89
2022/05/18 00:23:58;;;;;;;10.38;6.78;;;12.40;99.90;;;;;;4958599;28;20027;-88
2022/05/18 00:26:24;;;;;;;7.43;6.32;;;12.40;99.90;;;;;;4970771;28;20077;-88
2022/05/18 00:28:50;;;;;;;7.97;7.28;;;12.40;99.90;;;;;;4946647;28;20035;-88
2022/05/18 00:31:18;;;;;;;9.30;7.43;;;12.50;99.90;;;;;;4956200;29;20027;-88
2022/05/18 00:33:44;;;;;;;11.18;7.38;;;12.50;99.90;;;;;;4956257;28;20027;-88
2022/05/18 00:36:11;;;;;;;7.60;6.72;;;12.50;99.90;;;;;;4955724;29;20479;-89
2022/05/18 00:38:37;;;;;;;13.70;7.63;;;12.50;99.90;;;;;;4952136;29;20032;-89
2022/05/18 00:41:03;;;;;;;16.33;7.72;;;12.50;99.90;;;;;;4955988;28;20039;-88
2022/05/18 00:43:28;;;;;;;8.55;6.55;;;12.50;99.90;;;;;;4954649;29;20031;-89
2022/05/18 00:45:54;;;;;;;7.32;6.65;;;12.50;99.90;;;;;;4956137;28;20086;-88
2022/05/18 00:48:19;;;;;;;8.50;7.40;;;12.50;99.90;;;;;;4956092;28;20054;-89
2022/05/18 00:50:45;;;;;;;9.30;8.20;;;12.50;99.90;;;;;;4954469;29;20499;-88
2022/05/18 00:53:22;;;;;;;8.40;6.50;;;12.40;99.90;;;;;;4953917;28;20039;-89
2022/05/18 00:55:57;;;;;;;8.73;7.97;;;12.40;99.90;;;;;;4952575;29;20510;-89
2022/05/18 00:58:22;;;;;;;8.57;7.85;;;12.40;99.90;;;;;;4953934;28;20039;-88
2022/05/18 01:00:51;;;;;;;8.07;6.95;;;12.40;99.90;;;;;;4954063;28;20035;-89
2022/05/18 01:03:25;;;;;;;8.15;7.40;;;12.40;99.90;;;;;;4952056;29;20031;-89
2022/05/18 01:06:05;;;;;;;7.05;6.45;;;12.40;99.90;;;;;;4955348;28;20031;-89
2022/05/18 01:08:40;;;;;;;8.02;7.00;;;12.40;99.90;;;;;;4954647;28;20090;-89
2022/05/18 01:11:06;;;;;;;7.35;6.68;;;12.40;99.90;;;;;;4967987;28;20047;-88
2022/05/18 01:13:32;;;;;;;9.57;7.55;;;12.40;99.90;;;;;;4955504;28;20532;-88
2022/05/18 01:15:58;;;;;;;8.05;7.25;;;12.40;99.90;;;;;;4953985;28;20035;-88
2022/05/18 01:18:24;;;;;;;8.68;7.85;;;12.40;99.90;;;;;;4955175;28;20062;-89
2022/05/18 01:20:50;;;;;;;10.73;7.45;;;12.40;99.90;;;;;;4953739;28;20174;-88
2022/05/18 01:23:46;;;;;;;10.48;6.70;;;12.50;99.90;;;;;;4953461;28;20530;-89
2022/05/18 01:26:28;;;;;;;8.73;7.82;;;12.50;99.90;;;;;;4955180;28;20034;-89
2022/05/18 01:28:58;;;;;;;8.90;7.30;;;12.60;99.90;;;;;;4944961;29;20031;-88
2022/05/18 01:31:42;;;;;;;8.75;7.80;;;12.70;99.90;;;;;;4955527;28;20031;-88
2022/05/18 01:34:08;;;;;;;7.88;7.10;;;12.80;99.90;;;;;;4947274;29;20026;-88
2022/05/18 01:36:34;;;;;;;7.35;6.75;;;12.80;99.90;;;;;;4955497;28;20019;-87
2022/05/18 01:38:59;;;;;;;8.13;7.45;;;12.80;99.90;;;;;;4955182;28;20035;-88
2022/05/18 01:41:30;;;;;;;7.63;6.82;;;12.90;99.90;;;;;;4954808;28;20585;-88
2022/05/18 01:43:59;;;;;;;8.93;7.40;;;12.90;99.90;;;;;;4953003;29;20063;-87
2022/05/18 01:46:28;;;;;;;6.88;6.22;;;12.90;99.90;;;;;;4963593;28;20055;-88
2022/05/18 01:48:54;;;;;;;7.68;6.97;;;12.90;99.90;;;;;;4947971;28;20450;-88
2022/05/18 01:51:43;;;;;;;14.63;6.70;;;12.90;99.90;;;;;;4953802;29;20027;-89
2022/05/18 01:54:08;;;;;;;6.88;6.20;;;12.90;99.90;;;;;;4936081;29;20147;-89
2022/05/18 01:56:34;;;;;;;6.45;5.88;;;13.00;99.90;;;;;;4954591;28;20547;-88
2022/05/18 01:59:00;;;;;;;7.13;6.40;;;12.90;99.90;;;;;;4954171;28;20032;-89
2022/05/18 02:01:26;;;;;;;8.20;6.30;;;12.90;99.90;;;;;;4952983;29;20069;-88
2022/05/18 02:03:53;;;;;;;7.47;6.65;;;12.90;99.90;;;;;;4954542;28;20027;-88
2022/05/18 02:06:19;;;;;;;8.38;6.38;;;13.00;99.90;;;;;;4953623;29;20114;-89
2022/05/18 02:08:45;;;;;;;7.32;6.68;;;13.00;99.90;;;;;;4952762;29;20122;-89
2022/05/18 02:11:19;;;;;;;7.70;7.10;;;13.00;99.90;;;;;;4951049;29;20128;-87
2022/05/18 02:13:45;;;;;;;20.67;7.93;;;12.90;99.90;;;;;;4944357;28;20507;-88
2022/05/18 02:16:12;;;;;;;10.45;7.80;;;13.00;99.90;;;;;;4966837;28;20077;-88
2022/05/18 02:18:37;;;;;;;8.98;7.97;;;13.00;99.90;;;;;;4952041;28;20034;-90
2022/05/18 02:21:05;;;;;;;8.00;7.30;;;12.90;99.90;;;;;;4952948;29;20039;-88
2022/05/18 02:23:32;;;;;;;8.77;7.85;;;12.90;99.90;;;;;;4949421;28;20043;-89
2022/05/18 02:25:58;;;;;;;7.95;7.15;;;12.90;99.90;;;;;;4952561;29;20027;-90
2022/05/18 02:28:25;;;;;;;13.73;7.90;;;12.90;99.90;;;;;;4967671;28;20522;-89
2022/05/18 02:30:50;;;;;;;8.82;8.07;;;12.90;99.90;;;;;;4952842;29;20031;-89
2022/05/18 02:33:16;;;;;;;10.80;8.02;;;12.90;99.90;;;;;;4954432;28;20497;-90
2022/05/18 02:35:41;;;;;;;9.80;8.13;;;12.80;99.90;;;;;;4952667;28;20027;-90
2022/05/18 02:38:09;;;;;;;11.20;8.75;;;12.80;99.90;;;;;;4946663;29;20483;-89
2022/05/18 02:40:35;;;;;;;10.23;8.60;;;12.80;99.90;;;;;;4953267;28;20035;-90
2022/05/18 02:43:01;;;;;;;9.18;8.40;;;12.80;99.90;;;;;;4954019;28;20150;-90
2022/05/18 02:45:27;;;;;;;8.48;7.85;;;12.80;99.90;;;;;;4954124;28;20031;-89
2022/05/18 02:47:53;;;;;;;9.23;8.35;;;12.90;99.90;;;;;;4969334;28;20031;-89
2022/05/18 02:50:19;;;;;;;9.10;8.30;;;12.90;99.90;;;;;;4962570;28;20539;-88
2022/05/18 02:52:45;;;;;;;9.05;8.35;;;12.90;99.90;;;;;;4953783;28;20110;-89
2022/05/18 02:57:55;;;;;;;9.98;8.30;;;12.90;99.90;;;;;;4954165;28;20399;-89
2022/05/18 03:00:21;;;;;;;9.27;7.85;;;13.00;99.90;;;;;;4953683;29;20027;-89
2022/05/18 03:02:47;;;;;;;9.18;7.82;;;13.00;99.90;;;;;;4953896;28;20038;-90
2022/05/18 03:05:13;;;;;;;10.02;8.23;;;13.00;99.90;;;;;;4953875;28;20070;-89
2022/05/18 03:07:38;;;;;;;7.53;6.88;;;13.10;99.90;;;;;;4953543;28;20031;-89
2022/05/18 03:10:04;;;;;;;7.93;7.32;;;13.20;99.90;;;;;;4956454;28;20032;-88
2022/05/18 03:12:30;;;;;;;10.45;7.93;;;13.20;99.90;;;;;;4961713;28;20027;-89
2022/05/18 03:14:55;;;;;;;7.63;6.93;;;13.20;99.90;;;;;;4953907;28;20066;-88
2022/05/18 03:17:21;;;;;;;9.38;8.48;;;13.30;99.90;;;;;;4952875;28;20031;-89
2022/05/18 03:19:47;;;;;;;8.82;8.02;;;13.30;99.90;;;;;;4952712;28;20139;-89
2022/05/18 03:24:56;;;;;;;8.63;7.82;;;13.30;99.90;;;;;;4953772;28;20035;-90
2022/05/18 03:27:22;;;;;;;8.07;7.38;;;13.20;99.90;;;;;;4951216;29;20028;-90
2022/05/18 03:29:48;;;;;;;8.32;7.63;;;13.20;99.90;;;;;;4951665;28;20035;-89
2022/05/18 03:32:13;;;;;;;9.20;8.40;;;13.10;99.90;;;;;;4953511;28;20558;-90
2022/05/18 03:34:39;;;;;;;10.85;8.02;;;13.10;99.90;;;;;;4953427;28;20039;-89
2022/05/18 03:37:04;;;;;;;9.23;8.40;;;13.00;99.90;;;;;;4946231;28;20027;-89
2022/05/18 03:39:30;;;;;;;9.35;8.15;;;13.00;99.90;;;;;;4947090;28;20047;-90
2022/05/18 03:41:57;;;;;;;10.75;8.32;;;13.00;99.90;;;;;;4949144;28;20051;-90
2022/05/18 03:44:23;;;;;;;10.02;8.98;;;13.00;99.90;;;;;;4962715;28;20032;-90
2022/05/18 03:46:48;;;;;;;9.25;8.23;;;13.10;99.90;;;;;;4952379;29;20034;-89
2022/05/18 03:49:14;;;;;;;9.30;8.50;;;13.10;99.90;;;;;;4951767;29;20023;-90
2022/05/18 03:51:40;;;;;;;8.80;8.10;;;13.00;99.90;;;;;;4952002;28;20023;-89
2022/05/18 03:54:10;;;;;;;9.35;8.45;;;13.00;99.90;;;;;;4950858;29;20140;-89
2022/05/18 03:56:36;;;;;;;9.88;8.98;;;13.10;99.90;;;;;;4951393;29;20106;-88
2022/05/18 03:59:01;;;;;;;8.30;7.60;;;13.10;99.90;;;;;;4951089;29;20071;-90
2022/05/18 04:01:27;;;;;;;9.02;8.32;;;13.10;99.90;;;;;;4953033;28;20720;-90
2022/05/18 04:03:53;;;;;;;9.60;8.70;;;13.20;99.90;;;;;;4952214;28;20390;-90
2022/05/18 04:06:20;;;;;;;13.55;8.13;;;13.30;99.90;;;;;;4967341;28;20138;-89
2022/05/18 04:08:46;;;;;;;11.35;8.63;;;13.40;99.90;;;;;;4952572;28;20119;-89
2022/05/18 04:11:13;;;;;;;8.75;8.05;;;13.50;99.90;;;;;;4952707;28;20083;-90
2022/05/18 04:13:39;;;;;;;9.32;8.52;;;13.60;99.90;;;;;;4953416;28;20035;-90
2022/05/18 04:16:05;;;;;;;7.90;7.30;;;13.70;99.90;;;;;;4951852;28;20057;-89
2022/05/18 04:18:32;;;;;;;8.02;6.65;;;13.80;99.90;;;;;;4948273;28;20031;-93
2022/05/18 04:20:59;;;;;;;8.45;7.68;;;14.00;99.90;;;;;;4951190;28;20035;-93
2022/05/18 04:23:25;;;;;;;8.52;7.93;;;14.10;99.90;;;;;;4951172;28;20028;-93
2022/05/18 04:25:52;;;;;;;7.63;6.78;;;14.20;99.90;;;;;;4941591;28;20032;-93
2022/05/18 04:28:18;;;;;;;8.25;7.28;;;14.40;99.90;;;;;;4955515;28;20028;-92
2022/05/18 04:30:46;;;;;;;9.93;9.13;;;14.50;99.90;;;;;;4956162;28;20020;-93
2022/05/18 04:33:14;;;;;;;8.82;8.13;;;14.60;99.90;;;;;;4957832;28;20027;-92
2022/05/18 04:35:40;;;;;;;8.88;8.18;;;14.70;99.90;;;;;;4956085;29;20114;-93
2022/05/18 04:38:06;;;;;;;9.63;8.93;;;14.80;99.90;;;;;;4957347;28;20118;-93
2022/05/18 04:40:32;;;;;;;10.20;8.98;;;14.90;99.90;;;;;;4954125;29;20043;-93
2022/05/18 04:42:58;;;;;;;9.73;8.93;;;15.10;99.90;;;;;;4957287;28;20024;-93
2022/05/18 04:45:24;;;;;;;10.60;9.70;;;15.20;99.90;;;;;;4952699;29;20024;-93
2022/05/18 04:47:50;;;;;;;10.50;9.35;;;15.40;99.90;;;;;;4952625;29;20055;-92
2022/05/18 04:50:16;;;;;;;10.88;9.90;;;15.50;99.90;;;;;;4954750;29;20051;-93
2022/05/18 04:52:42;;;;;;;15.75;10.32;;;15.70;99.90;;;;;;4954921;29;20027;-93
2022/05/18 04:55:09;;;;;;;8.85;8.02;;;15.80;99.90;;;;;;4959357;28;20023;-94
2022/05/18 04:57:35;;;;;;;9.73;8.43;;;15.80;99.90;;;;;;4956679;28;20023;-93
2022/05/18 05:00:01;;;;;;;8.82;8.10;;;15.70;99.90;;;;;;4955125;29;20427;-92
2022/05/18 05:02:27;;;;;;;10.45;8.73;;;15.80;99.90;;;;;;4954621;29;20027;-93
2022/05/18 05:04:53;;;;;;;10.20;8.63;;;15.80;99.90;;;;;;4955343;28;20027;-93
2022/05/18 05:07:18;;;;;;;12.50;8.77;;;15.80;99.90;;;;;;4957065;28;20020;-93
2022/05/18 05:09:44;;;;;;;10.90;9.93;;;15.70;99.90;;;;;;4958688;28;20431;-94
2022/05/18 05:12:10;;;;;;;9.75;8.88;;;15.70;99.90;;;;;;4971663;28;20061;-94
2022/05/18 05:14:40;;;;;;;9.85;9.05;;;15.70;99.90;;;;;;4965535;28;20510;-94
2022/05/18 05:17:06;;;;;;;10.52;9.63;;;15.60;99.90;;;;;;4960686;28;20139;-93
2022/05/18 05:19:34;;;;;;;11.55;10.40;;;15.60;99.90;;;;;;4965818;28;20126;-92
2022/05/18 05:22:00;;;;;;;11.45;10.35;;;15.60;99.90;;;;;;4955902;28;20062;-93
2022/05/18 05:24:26;;;;;;;11.85;11.02;;;15.70;99.90;;;;;;4961278;28;20023;-93
2022/05/18 05:26:51;;;;;;;12.30;11.35;;;15.60;99.90;;;;;;4957056;28;20055;-93
2022/05/18 05:29:17;;;;;;;12.82;11.75;;;15.50;99.90;;;;;;4944940;28;20514;-92
2022/05/18 05:31:43;;;;;;;12.25;11.02;;;15.50;99.90;;;;;;4944170;28;20119;-93
2022/05/18 05:34:09;;;;;;;12.20;11.30;;;15.50;99.90;;;;;;4970219;28;20031;-93
2022/05/18 05:36:35;;;;;;;12.45;11.55;;;15.50;99.90;;;;;;4970086;28;20026;-93
2022/05/18 05:39:00;;;;;;;12.20;10.98;;;15.50;99.90;;;;;;4954314;28;20023;-92
2022/05/18 05:41:27;;;;;;;11.10;10.25;;;15.50;99.90;;;;;;4953444;29;20503;-92
2022/05/18 05:43:56;;;;;;;11.30;10.30;;;15.50;99.90;;;;;;4954919;28;20446;-91
2022/05/18 05:46:23;;;;;;;10.68;9.85;;;15.70;99.90;;;;;;4954973;28;20035;-92
2022/05/18 05:48:49;;;;;;;10.73;9.85;;;15.80;99.90;;;;;;4955888;28;20031;-92
2022/05/18 05:51:16;;;;;;;13.73;12.35;;;15.90;99.90;;;;;;4957440;29;20030;-93
2022/05/18 05:53:43;;;;;;;13.38;12.13;;;15.90;99.90;;;;;;4954428;29;20447;-93
2022/05/18 05:56:11;;;;;;;12.25;11.07;;;16.00;99.90;;;;;;4958841;28;20032;-93
2022/05/18 05:58:37;;;;;;;13.27;11.85;;;15.90;99.90;;;;;;4959010;28;20034;-92
2022/05/18 06:01:05;;;;;;;13.35;12.10;;;16.00;99.90;;;;;;4959851;28;20035;-92
2022/05/18 06:03:32;;;;;;;13.85;12.68;;;16.00;99.90;;;;;;4959812;28;20114;-92
2022/05/18 06:05:57;;;;;;;13.77;12.43;;;16.00;99.90;;;;;;4961972;28;20078;-93
2022/05/18 06:08:24;;;;;;;13.63;12.30;;;15.90;99.90;;;;;;4954588;29;20036;-93
2022/05/18 06:10:50;;;;;;;23.38;14.10;;;15.90;99.90;;;;;;4947091;29;20059;-94
2022/05/18 06:13:16;;;;;;;26.42;14.38;;;15.90;99.90;;;;;;4960017;28;20140;-93
2022/05/18 06:15:42;;;;;;;14.23;12.98;;;15.90;99.90;;;;;;4950686;28;20031;-93
2022/05/18 06:18:08;;;;;;;14.73;13.20;;;15.90;99.90;;;;;;4956631;28;20031;-93
2022/05/18 06:20:34;;;;;;;24.13;14.23;;;15.90;99.90;;;;;;4973775;28;20038;-93
2022/05/18 06:23:07;;;;;;;13.93;12.68;;;16.00;99.90;;;;;;4956645;28;20026;-94
2022/05/18 06:25:34;;;;;;;16.38;12.07;;;16.10;99.90;;;;;;4984948;28;20383;-92
2022/05/18 06:27:59;;;;;;;13.10;12.15;;;16.20;99.90;;;;;;4949056;28;20069;-92
2022/05/18 06:30:26;;;;;;;14.35;13.15;;;16.20;99.90;;;;;;4961291;28;20105;-93
2022/05/18 06:32:53;;;;;;;12.93;11.73;;;16.30;99.90;;;;;;4956458;28;20115;-92
2022/05/18 06:35:18;;;;;;;13.52;12.07;;;16.40;99.90;;;;;;4974767;28;20030;-93
2022/05/18 06:37:44;;;;;;;14.13;12.68;;;16.40;99.90;;;;;;4960125;28;20031;-92
2022/05/18 06:40:10;;;;;;;13.40;12.07;;;16.50;99.90;;;;;;4979090;28;20073;-93
2022/05/18 06:42:36;;;;;;;14.57;13.13;;;16.50;99.90;;;;;;4970085;28;20031;-92
2022/05/18 06:45:03;;;;;;;13.77;12.40;;;16.50;99.90;;;;;;4980569;28;20031;-93
2022/05/18 06:47:30;;;;;;;13.20;12.20;;;16.50;99.90;;;;;;4972177;28;20126;-94
2022/05/18 06:49:56;;;;;;;13.45;12.40;;;16.60;99.90;;;;;;4960029;28;20051;-93
2022/05/18 06:52:21;;;;;;;13.10;12.00;;;16.70;99.90;;;;;;4962426;28;20039;-91
2022/05/18 06:54:48;;;;;;;12.02;11.13;;;16.80;99.90;;;;;;4947640;28;20026;-91
2022/05/18 06:57:14;;;;;;;13.98;12.70;;;16.90;99.90;;;;;;4981471;28;20106;-93
2022/05/18 06:59:39;;;;;;;16.02;12.75;;;17.00;99.90;;;;;;4971011;28;20047;-93
2022/05/18 07:02:06;;;;;;;13.73;12.35;;;17.00;99.90;;;;;;4959868;28;20031;-92
2022/05/18 07:04:32;;;;;;;13.75;12.38;;;17.20;99.90;;;;;;4967579;28;20043;-92
2022/05/18 07:07:00;;;;;;;13.70;12.50;;;17.30;99.90;;;;;;4963925;28;20033;-93
2022/05/18 07:09:27;;;;;;;14.10;12.80;;;17.30;99.90;;;;;;4963053;28;20429;-93
2022/05/18 07:11:54;;;;;;;14.60;13.27;;;17.40;99.90;;;;;;4962127;28;20031;-93
2022/05/18 07:14:25;;;;;;;14.20;13.30;;;17.30;99.90;;;;;;4978114;28;20042;-93
2022/05/18 07:16:50;;;;;;;14.73;13.43;;;17.20;99.90;;;;;;4974086;28;20031;-93
2022/05/18 07:19:17;;;;;;;15.27;13.77;;;17.20;99.90;;;;;;4950890;28;20432;-93
2022/05/18 07:21:44;;;;;;;14.63;13.23;;;17.20;99.90;;;;;;4967292;28;20031;-93
2022/05/18 07:24:10;;;;;;;14.00;12.65;;;17.40;99.90;;;;;;4977170;28;20074;-92
2022/05/18 07:26:37;;;;;;;15.18;13.85;;;17.50;99.90;;;;;;4977622;28;20031;-93
2022/05/18 07:29:04;;;;;;;13.98;12.77;;;17.70;99.90;;;;;;4965893;28;20035;-92
2022/05/18 07:32:08;;;;;;;13.82;12.68;;;18.10;99.90;;;;;;4959458;28;20130;-93
2022/05/18 07:34:16;;;;;;;13.35;12.35;;;18.70;99.90;;;;;;4976627;28;20122;-93
2022/05/18 07:36:44;;;;;;;12.27;11.18;;;19.70;99.90;;;;;;4957019;28;20058;-92
2022/05/18 07:39:11;;;;;;;11.63;10.68;;;20.30;99.90;;;;;;4956667;28;20023;-93
2022/05/18 07:41:37;;;;;;;11.55;10.52;;;21.20;99.90;;;;;;4958816;28;20117;-92
2022/05/18 07:44:04;;;;;;;11.55;10.55;;;21.90;99.90;;;;;;4953207;28;20035;-93
2022/05/18 07:46:29;;;;;;;11.90;10.90;;;22.60;96.70;;;;;;4938108;28;20039;-93
2022/05/18 07:48:55;;;;;;;12.48;11.32;;;23.20;92.00;;;;;;4954401;28;20384;-92
2022/05/18 07:51:21;;;;;;;12.10;10.98;;;23.00;92.50;;;;;;4974819;28;20383;-93
2022/05/18 07:53:46;;;;;;;13.02;11.68;;;22.70;90.70;;;;;;4962435;28;20030;-93
2022/05/18 07:56:13;;;;;;;12.35;11.23;;;22.40;91.90;;;;;;4969345;28;20024;-92
2022/05/18 07:58:38;;;;;;;10.50;9.70;;;22.60;93.00;;;;;;4971476;28;20368;-92
2022/05/18 08:01:07;;;;;;;10.98;10.13;;;23.10;93.30;;;;;;4972481;28;20030;-92
2022/05/18 08:03:33;;;;;;;10.35;9.65;;;23.80;89.70;;;;;;4974481;28;20505;-93
2022/05/18 08:05:58;;;;;;;10.32;9.00;;;24.50;84.90;;;;;;4977321;28;20031;-92
2022/05/18 08:08:24;;;;;;;9.85;9.25;;;24.80;81.80;;;;;;4975430;28;20085;-95
2022/05/18 08:16:19;;;;;;;8.40;7.80;;;24.90;75.80;;;;;;4980998;28;20037;-94
2022/05/18 08:18:46;;;;;;;8.98;8.27;;;24.90;74.90;;;;;;4975071;28;20150;-92
2022/05/18 08:21:12;;;;;;;8.63;7.93;;;24.70;74.00;;;;;;4975268;28;20050;-93
2022/05/18 08:23:38;;;;;;;7.72;7.10;;;24.90;72.70;;;;;;4954261;28;20023;-92
2022/05/18 08:26:05;;;;;;;8.18;7.47;;;24.90;73.40;;;;;;4972155;28;20471;-91
2022/05/18 08:28:31;;;;;;;7.90;7.35;;;25.20;72.20;;;;;;4974271;28;20099;-93
2022/05/18 08:30:58;;;;;;;7.65;7.10;;;25.40;72.00;;;;;;4955958;28;20030;-94
2022/05/18 08:33:24;;;;;;;7.22;6.72;;;24.90;72.80;;;;;;4956159;28;20011;-93
2022/05/18 08:35:50;;;;;;;8.98;8.00;;;24.40;73.50;;;;;;4965988;28;20053;-94
2022/05/18 08:38:16;;;;;;;9.50;7.45;;;24.40;75.80;;;;;;4958759;28;20019;-93
2022/05/18 08:40:48;;;;;;;7.93;7.13;;;24.80;75.30;;;;;;4972571;28;20034;-93
2022/05/18 08:43:29;;;;;;;6.90;6.30;;;25.60;74.70;;;;;;4957520;28;20049;-92
2022/05/18 08:46:20;;;;;;;7.93;6.90;;;26.40;70.10;;;;;;4957773;28;20514;-93
2022/05/18 08:48:58;;;;;;;6.70;6.30;;;28.70;66.70;;;;;;4957679;28;20121;-93
2022/05/18 08:51:30;;;;;;;7.30;6.60;;;29.40;58.70;;;;;;4973412;28;20391;-92
2022/05/18 08:54:08;;;;;;;6.03;5.63;;;30.30;56.80;;;;;;4950577;28;20046;-92
2022/05/18 08:56:38;;;;;;;5.10;4.63;;;31.10;54.50;;;;;;4976634;28;20027;-93
2022/05/18 08:59:05;;;;;;;;;;;31.60;55.60;;;;;;4977709;28;20043;-92
2022/05/18 09:01:40;;;;;;;5.75;5.28;;;31.30;52.60;;;;;;4959979;28;19918;-94
2022/05/18 09:04:21;;;;;;;4.90;4.35;;;32.00;53.50;;;;;;4957735;28;20027;-92
2022/05/18 09:06:52;;;;;;;5.38;4.97;;;32.10;52.00;;;;;;4954016;28;20034;-94
2022/05/18 09:12:07;;;;;;;6.95;5.57;;;32.40;50.90;;;;;;4974360;28;19917;-92
2022/05/18 09:14:37;;;;;;;5.00;4.60;;;32.10;49.10;;;;;;4960828;28;20438;-94
2022/05/18 09:17:25;;;;;;;4.88;4.53;;;32.40;51.60;;;;;;4979302;28;20030;-92
2022/05/18 09:20:13;;;;;;;4.45;4.15;;;32.70;51.00;;;;;;4976999;28;20399;-92
2022/05/18 09:23:33;;;;;;;6.15;4.18;;;32.10;49.50;;;;;;4957628;28;20383;-92
2022/05/18 09:26:04;;;;;;;6.40;4.35;;;32.70;50.40;;;;;;4878175;29;20040;-92
2022/05/18 09:28:53;;;;;;;4.68;3.78;;;32.50;47.60;;;;;;4941795;28;20043;-93
2022/05/18 09:31:44;;;;;;;5.18;3.15;;;32.90;48.20;;;;;;4942022;29;20035;-91
2022/05/18 09:34:33;;;;;;;;;;;33.10;50.20;;;;;;4957990;28;20027;-93
2022/05/18 09:37:25;;;;;;;3.25;2.95;;;33.30;47.90;;;;;;4956639;28;20382;-92
2022/05/18 09:39:59;;;;;;;4.55;3.45;;;33.50;45.70;;;;;;4970937;28;20038;-92
2022/05/18 09:42:31;;;;;;;5.00;2.97;;;32.90;46.50;;;;;;4960652;28;20386;-93
2022/05/18 09:45:07;;;;;;;3.20;2.80;;;33.60;47.20;;;;;;4942812;29;20039;-91
2022/05/18 09:47:55;;;;;;;3.65;3.20;;;34.90;43.90;;;;;;4968978;28;20450;-93
2022/05/18 09:50:21;;;;;;;3.20;2.90;;;35.20;42.20;;;;;;4942699;28;20027;-93
2022/05/18 09:52:48;;;;;;;2.95;2.55;;;35.70;43.20;;;;;;4949480;28;20030;-93
2022/05/18 09:55:19;;;;;;;4.70;3.30;;;34.90;42.10;;;;;;4969906;28;20034;-93
2022/05/18 09:57:56;;;;;;;3.47;3.20;;;34.60;42.20;;;;;;4958643;28;20061;-93
2022/05/18 10:00:28;;;;;;;4.85;3.25;;;33.80;43.10;;;;;;4951681;28;20026;-92
2022/05/18 10:08:36;;;;;;;2.90;2.70;;;32.80;45.60;;;;;;4974898;28;20057;-93
2022/05/18 10:11:17;;;;;;;3.35;2.53;;;32.80;48.50;;;;;;4959207;28;20126;-93
2022/05/18 10:13:53;;;;;;;2.20;2.00;;;33.30;48.30;;;;;;4955632;28;20027;-94
2022/05/18 10:16:37;;;;;;;3.13;2.13;;;32.50;43.90;;;;;;4967767;28;20567;-93
2022/05/18 10:19:04;;;;;;;2.03;1.92;;;32.30;44.30;;;;;;4949927;28;20022;-93
2022/05/18 10:21:38;;;;;;;2.25;1.95;;;32.80;45.00;;;;;;4977664;28;20058;-93
2022/05/18 10:24:24;;;;;;;9.80;2.85;;;34.10;45.00;;;;;;4973532;28;20027;-90
2022/05/18 10:27:14;;;;;;;3.25;2.40;;;35.10;42.40;;;;;;4979670;28;20035;-93
2022/05/18 10:29:41;;;;;;;2.95;2.30;;;35.30;41.90;;;;;;4968257;28;20346;-93
2022/05/18 10:32:21;;;;;;;8.25;2.97;;;35.10;42.10;;;;;;4954871;28;20031;-92
2022/05/18 10:34:52;;;;;;;10.68;3.05;;;34.20;40.90;;;;;;4954092;28;20034;-93
2022/05/18 10:37:26;;;;;;;5.63;1.90;;;34.50;44.80;;;;;;4974498;28;20502;-92
2022/05/18 10:40:02;;;;;;;1.98;1.80;;;34.50;41.90;;;;;;4974738;28;20035;-92
2022/05/18 10:42:42;;;;;;;2.25;1.80;;;34.60;43.10;;;;;;4958031;28;20027;-93
2022/05/18 10:45:26;;;;;;;2.38;1.80;;;34.30;42.60;;;;;;4988169;28;20023;-92
2022/05/18 10:48:02;;;;;;;2.85;1.75;;;34.30;41.60;;;;;;4977390;28;20062;-93
2022/05/18 10:50:34;;;;;;;1.85;1.48;;;34.90;40.40;;;;;;4973939;28;20037;-93
2022/05/18 10:53:30;;;;;;;2.90;1.60;;;34.70;40.10;;;;;;4957206;28;20146;-92
2022/05/18 10:55:56;;;;;;;2.78;1.45;;;34.40;38.80;;;;;;4955690;28;20034;-93
2022/05/18 10:58:38;;;;;;;3.42;1.70;;;34.30;40.60;;;;;;4956528;28;20031;-92
2022/05/18 11:01:10;;;;;;;2.75;1.52;;;33.80;41.40;;;;;;4976467;28;20038;-93
2022/05/18 11:03:59;;;;;;;5.97;1.58;;;34.00;42.80;;;;;;4959169;28;20541;-92
2022/05/18 11:06:38;;;;;;;1.60;1.40;;;33.80;44.20;;;;;;4974660;28;20129;-93
2022/05/18 11:09:09;;;;;;;2.40;1.38;;;34.30;41.70;;;;;;4969067;28;20039;-93
2022/05/18 11:11:34;;;;;;;;;;;33.80;42.80;;;;;;4957135;28;20106;-93
2022/05/18 11:14:12;;;;;;;3.28;1.80;;;33.50;41.30;;;;;;4973488;28;19949;-93
2022/05/18 11:17:06;;;;;;;3.13;1.95;;;33.00;41.70;;;;;;4957002;28;20081;-92
2022/05/18 11:19:51;;;;;;;2.00;1.70;;;32.90;47.50;;;;;;4956139;28;20035;-93
2022/05/18 11:22:35;;;;;;;2.75;1.70;;;32.60;42.40;;;;;;4953779;29;20064;-93
2022/05/18 11:25:31;;;;;;;3.25;1.70;;;32.40;44.50;;;;;;4966678;28;20406;-93
2022/05/18 11:28:15;;;;;;;2.13;1.75;;;32.20;46.10;;;;;;4956838;28;20018;-93
2022/05/18 11:31:01;;;;;;;2.17;1.52;;;32.40;44.80;;;;;;4963906;28;20118;-93
2022/05/18 11:34:13;;;;;;;3.35;1.60;;;32.20;44.10;;;;;;4960991;28;20503;-92
2022/05/18 11:37:05;;;;;;;2.20;1.50;;;31.60;47.70;;;;;;4937761;28;20479;-92
2022/05/18 11:39:58;;;;;;;2.17;1.63;;;31.20;43.60;;;;;;4959049;28;20023;-93
2022/05/18 11:42:39;;;;;;;1.45;1.20;;;31.10;44.70;;;;;;4957255;28;20054;-94
2022/05/18 11:45:32;;;;;;;2.38;1.42;;;31.30;44.80;;;;;;4959562;28;20061;-93
2022/05/18 11:48:01;;;;;;;2.30;1.40;;;31.70;44.20;;;;;;4976081;28;20386;-94
2022/05/18 11:50:35;;;;;;;2.75;1.20;;;32.30;44.70;;;;;;4939956;29;20114;-93
2022/05/18 11:53:37;;;;;;;1.60;1.30;;;32.80;45.00;;;;;;4969949;28;20031;-93
2022/05/18 11:56:21;;;;;;;1.55;1.10;;;32.90;44.00;;;;;;4974551;28;20031;-94
2022/05/18 12:01:50;;;;;;;1.10;0.90;;;34.00;41.50;;;;;;4992170;28;20034;-93
2022/05/18 12:04:45;;;;;;;1.67;1.17;;;34.40;41.80;;;;;;4964448;28;20035;-92
2022/05/18 12:07:44;;;;;;;1.45;1.17;;;34.60;40.90;;;;;;4954777;29;20036;-93
2022/05/18 12:10:34;;;;;;;1.98;1.10;;;34.30;38.80;;;;;;4954630;28;20537;-93
2022/05/18 12:13:35;;;;;;;2.00;1.00;;;34.00;41.50;;;;;;4973876;28;20169;-92
2022/05/18 12:16:07;;;;;;;2.28;0.95;;;33.40;40.10;;;;;;4960904;28;20259;-93
2022/05/18 12:18:42;;;;;;;2.50;1.20;;;33.30;39.90;;;;;;4973293;28;20074;-94
2022/05/18 12:21:17;;;;;;;1.10;0.90;;;33.20;43.40;;;;;;4974353;28;20122;-92
2022/05/18 12:23:58;;;;;;;2.20;1.30;;;32.80;40.40;;;;;;4960736;28;20028;-92
2022/05/18 12:26:26;;;;;;;1.52;1.27;;;32.40;41.50;;;;;;4938661;29;20027;-93
2022/05/18 12:28:57;;;;;;;2.17;1.20;;;32.60;43.80;;;;;;4965762;28;20043;-93
2022/05/18 12:31:30;;;;;;;3.17;1.20;;;33.10;42.80;;;;;;4971339;28;20027;-94
2022/05/18 12:34:07;;;;;;;1.45;1.00;;;33.50;41.40;;;;;;4950558;28;20104;-93
2022/05/18 12:36:41;;;;;;;1.10;1.00;;;33.80;42.40;;;;;;4953718;28;20043;-93
2022/05/18 12:39:12;;;;;;;1.20;1.10;;;34.30;41.10;;;;;;4946809;29;20054;-93
2022/05/18 12:41:46;;;;;;;0.95;0.85;;;34.40;42.90;;;;;;4962643;29;20047;-94
2022/05/18 12:44:23;;;;;;;1.95;1.20;;;34.70;41.70;;;;;;4975728;28;20114;-94
2022/05/18 12:46:53;;;;;;;1.10;0.90;;;34.90;41.00;;;;;;4962721;28;20033;-93
2022/05/18 12:52:05;;;;;;;2.20;0.80;;;34.50;42.70;;;;;;4951787;28;20035;-60
2022/05/18 12:54:42;;;;;;;2.75;1.00;;;34.40;39.20;;;;;;4952238;28;20488;-60
2022/05/18 12:57:10;;;;;;;1.17;0.90;;;33.20;39.80;;;;;;4950275;29;20099;-60
2022/05/18 12:59:58;;;;;;;1.48;1.00;;;32.60;39.10;;;;;;4951305;28;20480;-60
2022/05/18 13:02:43;;;;;;;2.83;0.90;;;32.20;39.50;;;;;;4951359;28;20039;-60
2022/05/18 13:05:33;;;;;;;2.10;0.90;;;32.00;44.20;;;;;;4952118;28;20138;-60
2022/05/18 13:08:20;;;;;;;1.35;1.10;;;32.50;43.00;;;;;;4952987;28;20439;-60
2022/05/18 13:11:09;;;;;;;3.70;1.15;;;33.10;41.00;;;;;;4951816;28;20037;-60
2022/05/18 13:14:00;;;;;;;1.30;1.00;;;32.90;39.50;;;;;;4952679;28;20039;-60
2022/05/18 13:16:55;;;;;;;6.70;1.10;;;33.20;39.70;;;;;;4952340;28;20035;-60
2022/05/18 13:19:24;;;;;;;1.17;1.02;;;33.30;40.10;;;;;;4882958;29;20120;-60
2022/05/18 13:21:59;;;;;;;1.00;0.90;;;33.30;38.30;;;;;;4952773;28;20086;-60
2022/05/18 13:24:38;;;;;;;6.75;1.25;;;33.00;38.20;;;;;;4953050;29;20106;-60
2022/05/18 13:27:20;;;;;;;2.53;1.08;;;32.10;41.00;;;;;;4972415;28;20405;-62
2022/05/18 13:29:50;;;;;;;3.63;1.25;;;31.90;40.10;;;;;;4971029;28;20027;-62